Private Wetterstation ohne Gewhr
Wetterdaten: aktuell Freitag, 07.08.2020 21:55
Datum Zeit Temp. A. Temp. A. min Temp. A. max BodenTemp 1 BodenTemp 2 Feuchte A. Bod.Feucht 1 Luftdruck Regen Wind Richtung Richtung Taupunkt Windchill Windben
07.08.2020 21:55 21,0 C 21,0 C 21,2 C 21,7 C 21,1 C 71 % 200 cb 1004,5 hPa 0,0 mm 0,0 km/h (0 Bft) N 0 15,5 C 21,0 C 0,0 km/h (0 Bft)
07.08.2020 20:55 23,4 C 23,4 C 23,8 C 22,2 C 21,1 C 65 % 200 cb 1004,0 hPa 0,0 mm 0,0 km/h (0 Bft) N 0 16,4 C 23,4 C 0,0 km/h (0 Bft)
07.08.2020 19:55 27,9 C 27,9 C 28,2 C 22,2 C 21,1 C 54 % 200 cb 1003,8 hPa 0,0 mm 0,0 km/h (0 Bft) N 0 17,7 C 27,9 C 0,0 km/h (0 Bft)
07.08.2020 18:55 29,8 C 29,8 C 30,2 C 22,2 C 21,1 C 48 % 200 cb 1003,9 hPa 0,0 mm 0,0 km/h (0 Bft) N 0 17,6 C 29,8 C 0,0 km/h (0 Bft)
07.08.2020 17:55 30,7 C 30,7 C 30,8 C 22,2 C 20,6 C 37 % 200 cb 1004,0 hPa 0,0 mm 0,0 km/h (0 Bft) NO 45 14,3 C 30,7 C 3,2 km/h (1 Bft)
07.08.2020 16:55 31,2 C 31,2 C 31,7 C 22,2 C 20,6 C 33 % 200 cb 1004,3 hPa 0,0 mm 0,0 km/h (0 Bft) NO 45 13,0 C 31,2 C 4,8 km/h (1 Bft)
07.08.2020 15:55 31,6 C 31,4 C 31,7 C 21,7 C 20,0 C 34 % 200 cb 1004,4 hPa 0,0 mm 0,0 km/h (0 Bft) O-NO 67 13,8 C 31,6 C 6,4 km/h (2 Bft)
07.08.2020 14:55 31,1 C 31,1 C 31,4 C 21,1 C 20,0 C 36 % 200 cb 1004,8 hPa 0,0 mm 1,6 km/h (1 Bft) O-NO 67 14,2 C 31,1 C 6,4 km/h (2 Bft)
07.08.2020 13:55 30,4 C 30,4 C 30,8 C 20,6 C 19,4 C 40 % 200 cb 1004,9 hPa 0,0 mm 1,6 km/h (1 Bft) N-NO 22 15,3 C 30,4 C 11,3 km/h (2 Bft)
07.08.2020 12:55 29,4 C 29,3 C 29,5 C 20,0 C 19,4 C 47 % 200 cb 1005,3 hPa 0,0 mm 3,2 km/h (1 Bft) NO 45 16,9 C 29,4 C 11,3 km/h (2 Bft)
07.08.2020 11:55 28,3 C 27,7 C 28,3 C 19,4 C 19,4 C 55 % 200 cb 1005,5 hPa 0,0 mm 1,6 km/h (1 Bft) N 360 18,4 C 28,3 C 9,7 km/h (2 Bft)
07.08.2020 10:55 25,8 C 25,3 C 25,8 C 19,4 C 19,4 C 66 % 200 cb 1005,7 hPa 0,0 mm 0,0 km/h (0 Bft) NO 45 19,0 C 25,8 C 6,4 km/h (2 Bft)
07.08.2020 09:55 23,3 C 23,2 C 23,4 C 18,9 C 19,4 C 74 % 200 cb 1005,8 hPa 0,0 mm 0,0 km/h (0 Bft) N 360 18,4 C 23,3 C 8,0 km/h (2 Bft)
07.08.2020 08:55 21,4 C 21,1 C 21,4 C 18,9 C 19,4 C 81 % 200 cb 1005,8 hPa 0,0 mm 1,6 km/h (1 Bft) N 360 18,0 C 21,4 C 8,0 km/h (2 Bft)
07.08.2020 07:55 18,3 C 18,3 C 18,3 C 18,9 C 19,4 C 93 % 200 cb 1005,6 hPa 0,0 mm 0,0 km/h (0 Bft) N 0 17,1 C 18,3 C 0,0 km/h (0 Bft)
07.08.2020 06:55 15,9 C 15,7 C 15,9 C 18,9 C 19,4 C 92 % 200 cb 1005,4 hPa 0,0 mm 0,0 km/h (0 Bft) N 0 14,6 C 15,9 C 0,0 km/h (0 Bft)
07.08.2020 05:55 15,3 C 15,3 C 15,4 C 18,9 C 19,4 C 90 % 200 cb 1005,2 hPa 0,0 mm 0,0 km/h (0 Bft) N 0 13,7 C 15,3 C 0,0 km/h (0 Bft)
07.08.2020 04:55 15,8 C 15,8 C 15,8 C 19,4 C 20,0 C 89 % 200 cb 1005,0 hPa 0,0 mm 0,0 km/h (0 Bft) N 0 14,0 C 15,8 C 0,0 km/h (0 Bft)
07.08.2020 03:55 16,1 C 16,1 C 16,1 C 19,4 C 20,0 C 89 % 200 cb 1005,1 hPa 0,0 mm 0,0 km/h (0 Bft) N 0 14,3 C 16,1 C 0,0 km/h (0 Bft)
07.08.2020 02:55 16,6 C 16,6 C 16,7 C 19,4 C 20,0 C 88 % 200 cb 1005,2 hPa 0,0 mm 0,0 km/h (0 Bft) N 0 14,6 C 16,6 C 0,0 km/h (0 Bft)
07.08.2020 01:55 17,1 C 17,1 C 17,1 C 20,0 C 20,0 C 88 % 200 cb 1005,4 hPa 0,0 mm 0,0 km/h (0 Bft) N 0 15,1 C 17,1 C 0,0 km/h (0 Bft)
07.08.2020 00:55 17,2 C 17,2 C 17,2 C 20,0 C 20,0 C 86 % 200 cb 1005,5 hPa 0,0 mm 0,0 km/h (0 Bft) N 0 14,8 C 17,2 C 0,0 km/h (0 Bft)
07.08.2020 00:00 17,8 C 17,8 C 17,9 C 20,6 C 20,0 C 84 % 200 cb 1005,4 hPa 0,0 mm 0,0 km/h (0 Bft) N 0 15,1 C 17,8 C 0,0 km/h (0 Bft)
_ Min-Zeit 06:05 06:05 06:10 05:35 05:25 17:00 00:00 19:30 - 00:00 - - 17:00 06:05 00:00
Minimum _ 15,2 C 15,2 C 15,2 C 18,9 C 19,4 C 28 % 200 cb 1003,7 hPa - 0,0 km/h (0 Bft) - - 10,4 C 15,2 C 0,0 km/h (0 Bft)
_ Max-Zeit 16:00 16:45 16:00 16:35 18:55 07:20 00:00 09:00 00:00 13:05 - - 11:25 16:00 13:05
Maximum _ 31,9 C 31,7 C 31,9 C 22,2 C 21,1 C 93 % 200 cb 1005,9 hPa 0,0 mm 4,8 km/h
N-NO (1 Bft)
- - 20,1 C 31,8 C 16,1 km/h
N (3 Bft)
Durchschnitt _ 23,4 C 23,3 C 23,5 C 20,4 C 20,0 C 67 % 200 cb 1005,0 hPa #0,0 mm 0,5 km/h (0 Bft) N - 15,7 C 23,4 C 3,5 km/h (1 Bft)
c by j.kuehrer